Aurelia, IA

5:14 PM CDT on May 29, 2015 (GMT -0500)
Cherokee Municipal | | Change Station
CLOSE
Current Station
Airport
Location: Cherokee,
Elevation: 1227 ft
Nearby Weather Stations

Elev 1227 ft 42.73 °N, 95.56 °W | Updated 19 minutes ago

Overcast
Overcast
66 °F
Feels Like 66 °F
N
12
Wind Variable Wind from North
Gusts 25 mph

Today
High -- | Low -- °F
--% Chance of Precip.
Yesterday
High -- | Low -- °F
Precip. -- in
5:48 AM 8:50 PM
Waxing Gibbous, 86% visible
Pressure 29.91 in
Visibility 10.0 miles
Clouds Scattered Clouds 10000 ft
Mostly Cloudy 12000 ft
Dew Point 61 °F
Humidity 84%
Rainfall 0.00 in
Snow Depth Not available.
UV 3 out of 12
Pollen .90 out of 12
Air Quality Not available.
Flu Activity Sporadic
METAR KCKP 292155Z AUTO 36010G22KT 10SM SCT100 BKN120 19/16 A2991 RMK AO2 LTG DSNT W T01890161

More Conditions Fewer Conditions

Pressure 29.91 in
Visibility 10.0 miles
Clouds Scattered Clouds 10000 ft
Mostly Cloudy 12000 ft
Dew Point 61 °F
Humidity 84%
Rainfall 0.00 in
Snow Depth Not available.
UV 3 out of 12
Pollen .90 out of 12
Air Quality Not available.
Flu Activity Sporadic
METAR KCKP 292155Z AUTO 36010G22KT 10SM SCT100 BKN120 19/16 A2991 RMK AO2 LTG DSNT W T01890161

More Conditions Fewer Conditions

10-Day Weather Forecast

Almanac

Astronomy

May. 29, 2015 Rise Set
Actual Time
Civil Twilight
Nautical Twilight
Astronomical Twilight
Moon
Length of Visible Light
Length of Day
Tomorrow will be .
, % of the Moon is Illuminated

Today's Extremes

State Highs State Lows

Community

WunderPhotos

Upload Photos

1,825,379 photos uploaded!

WunderBlogs® & News

Nearby

Air Quality

  Air Quality AQ Index Pollutant
Not available.

Snow Depth

Station Depth Elevation

Earthquake Activity

City Distance Mag. Time & Date
Minimum magnitude displayed is 2.5.

Coastal Water Temperatures

Place Temperature

Stations

Nearby Weather Stations

Station Location Temp. Windchill Dew Point Humidity Wind Precip. Elev Updated Type